Carbonton, North Carolina
Current Conditions -  °F | °C
As of 9:35 AM on Sunday 23 Nov 2014 (Local Time) from KTTA Reporting Station
Light Rain Light Rain  
Wind Chill:   Ceiling: 2200
Heat Index:   Visibility: 10mi
Dew Point:   Wind: 0mph
Humidity: 74%   Direction: NA
Pressure: 30.26"   Gusts: NA
Location:  35.493°N, 79.1765°W
Report Text: KTTA 231435Z AUTO 00000KT 10SM -RA OVC022 06/02 A3026 RMK AO2 T00630019
Loading
Personal Weather Stations






























Interactive Weather Map New forecast layout! Learn more

10-Day Weather Forecast

Advertisements
Track Severe Weather on mobile